Time;durP1;ratioP1;P1;durP2;ratioP2;P2;SDS_P1;SDS_P2;PMS_P1;PMS_P2;Temp;Humidity;BMP_temperature;BMP_pressure;BME280_temperature;BME280_humidity;BME280_pressure;Samples;Min_cycle;Max_cycle;Signal;HPM_P1;HPM_P2
2023/08/15 00:00:13;;;;;;;44.00;7.60;;;29.30;52.10;;;;;;5067694;28;20290;-71
2023/08/15 00:02:42;;;;;;;36.07;6.57;;;29.30;52.00;;;;;;5079903;28;20199;-71
2023/08/15 00:05:09;;;;;;;54.13;8.50;;;29.30;52.00;;;;;;5088664;28;20698;-72
2023/08/15 00:07:36;;;;;;;34.13;6.70;;;29.30;52.00;;;;;;5071263;28;20278;-71
2023/08/15 00:10:04;;;;;;;32.20;6.47;;;29.30;52.10;;;;;;5070843;28;20283;-71
2023/08/15 00:12:30;;;;;;;27.00;5.67;;;29.30;52.10;;;;;;5084267;28;20211;-72
2023/08/15 00:14:57;;;;;;;36.47;6.57;;;29.30;52.10;;;;;;5072498;28;20678;-72
2023/08/15 00:17:24;;;;;;;26.93;5.83;;;29.30;52.10;;;;;;5075513;28;20198;-72
2023/08/15 00:19:53;;;;;;;32.23;6.70;;;29.30;52.20;;;;;;5085304;28;20737;-71
2023/08/15 00:22:20;;;;;;;29.83;5.87;;;29.30;52.20;;;;;;5070571;28;20918;-72
2023/08/15 00:24:47;;;;;;;49.13;7.70;;;29.30;52.20;;;;;;5071365;28;20306;-72
2023/08/15 00:27:14;;;;;;;30.07;6.10;;;29.20;52.10;;;;;;5073654;28;20286;-71
2023/08/15 00:29:41;;;;;;;27.20;5.87;;;29.20;52.10;;;;;;5084550;28;20286;-72
2023/08/15 00:32:08;;;;;;;42.93;7.37;;;29.20;52.10;;;;;;5069078;28;20196;-72
2023/08/15 00:34:34;;;;;;;28.17;6.07;;;29.30;52.20;;;;;;5083304;28;20234;-72
2023/08/15 00:37:03;;;;;;;25.33;5.50;;;29.20;52.20;;;;;;5073625;28;20205;-72
2023/08/15 00:39:30;;;;;;;33.80;6.40;;;29.20;52.10;;;;;;5070043;28;20226;-72
2023/08/15 00:41:57;;;;;;;16.50;5.00;;;29.20;52.20;;;;;;5075590;28;20290;-71
2023/08/15 00:44:24;;;;;;;30.53;6.07;;;29.20;52.10;;;;;;5073998;28;20838;-71
2023/08/15 00:46:51;;;;;;;18.87;4.97;;;29.20;52.20;;;;;;5089145;28;20202;-72
2023/08/15 00:49:19;;;;;;;37.27;6.37;;;29.20;52.20;;;;;;5081217;28;20222;-72
2023/08/15 00:51:47;;;;;;;32.13;6.33;;;29.20;52.20;;;;;;5076892;28;20206;-72
2023/08/15 00:54:16;;;;;;;31.03;6.00;;;29.20;52.20;;;;;;5077832;28;20235;-72
2023/08/15 00:56:43;;;;;;;34.83;6.50;;;29.20;52.20;;;;;;5080502;28;20226;-72
2023/08/15 00:59:10;;;;;;;30.77;6.13;;;29.20;52.20;;;;;;5074623;28;20208;-72
2023/08/15 01:01:37;;;;;;;37.57;7.07;;;29.10;52.20;;;;;;5069429;28;20287;-71
2023/08/15 01:04:06;;;;;;;24.53;5.53;;;29.20;52.20;;;;;;5076865;28;20702;-72
2023/08/15 01:06:33;;;;;;;24.17;5.33;;;29.10;52.20;;;;;;5074371;28;20238;-72
2023/08/15 01:09:00;;;;;;;28.00;5.80;;;29.10;52.20;;;;;;5091067;28;20282;-72
2023/08/15 01:11:33;;;;;;;25.60;5.60;;;29.10;52.20;;;;;;5081996;28;20205;-71
2023/08/15 01:14:05;;;;;;;76.13;10.27;;;29.10;52.30;;;;;;5067421;28;20238;-72
2023/08/15 01:16:37;;;;;;;25.50;5.53;;;29.10;52.30;;;;;;5069738;28;20683;-72
2023/08/15 01:19:11;;;;;;;53.27;8.13;;;29.10;52.30;;;;;;5076215;28;20290;-72
2023/08/15 01:21:43;;;;;;;40.70;7.03;;;29.10;52.30;;;;;;5072233;28;20203;-72
2023/08/15 01:24:11;;;;;;;37.17;6.43;;;29.10;52.30;;;;;;5089171;28;20290;-72
2023/08/15 01:26:38;;;;;;;54.93;7.87;;;29.10;52.30;;;;;;5069664;28;20290;-72
2023/08/15 01:29:06;;;;;;;21.07;5.13;;;29.00;52.30;;;;;;5073128;28;20634;-72
2023/08/15 01:31:36;;;;;;;41.20;7.00;;;29.00;52.30;;;;;;5069295;28;20683;-72
2023/08/15 01:34:10;;;;;;;29.33;5.90;;;29.10;52.40;;;;;;5069509;28;20278;-72
2023/08/15 01:36:44;;;;;;;27.83;5.83;;;29.00;52.30;;;;;;5069082;28;20195;-72
2023/08/15 01:39:15;;;;;;;25.40;5.90;;;29.00;52.30;;;;;;5073776;28;20281;-72
2023/08/15 01:41:43;;;;;;;35.50;6.57;;;29.00;52.30;;;;;;5074261;28;20212;-72
2023/08/15 01:44:12;;;;;;;25.27;5.47;;;29.00;52.30;;;;;;5075127;28;20295;-72
2023/08/15 01:46:39;;;;;;;32.97;6.17;;;29.00;52.40;;;;;;5080048;28;20230;-72
2023/08/15 01:49:07;;;;;;;56.07;8.40;;;29.00;52.30;;;;;;5070996;28;20203;-72
2023/08/15 01:51:34;;;;;;;24.30;5.37;;;29.00;52.40;;;;;;5069342;28;20265;-72
2023/08/15 01:54:00;;;;;;;43.73;7.17;;;29.00;52.40;;;;;;5071556;28;20209;-72
2023/08/15 01:56:29;;;;;;;30.00;5.87;;;29.00;52.40;;;;;;5086184;28;20289;-72
2023/08/15 01:58:56;;;;;;;20.83;5.07;;;29.00;52.40;;;;;;5068629;28;20253;-72
2023/08/15 02:01:23;;;;;;;24.80;5.40;;;29.00;52.40;;;;;;5070979;28;20547;-72
2023/08/15 02:03:50;;;;;;;43.30;6.93;;;29.00;52.40;;;;;;5081508;28;20287;-72
2023/08/15 02:06:18;;;;;;;30.53;6.10;;;29.00;52.50;;;;;;5080153;28;20211;-72
2023/08/15 02:08:45;;;;;;;26.50;5.83;;;29.00;52.40;;;;;;5068575;28;20208;-72
2023/08/15 02:11:12;;;;;;;47.13;7.47;;;29.00;52.50;;;;;;5067661;28;20207;-72
2023/08/15 02:13:41;;;;;;;33.17;6.10;;;29.00;52.50;;;;;;5073084;28;20199;-72
2023/08/15 02:16:08;;;;;;;26.07;5.60;;;28.90;52.40;;;;;;5071514;28;20199;-72
2023/08/15 02:18:35;;;;;;;43.07;6.87;;;28.90;52.40;;;;;;5079787;28;20290;-72
2023/08/15 02:21:02;;;;;;;23.40;5.50;;;28.90;52.40;;;;;;5088808;28;20210;-72
2023/08/15 02:23:29;;;;;;;28.10;5.87;;;29.00;52.50;;;;;;5089162;28;20201;-72
2023/08/15 02:25:56;;;;;;;24.77;5.30;;;28.90;52.40;;;;;;5086997;28;20315;-72
2023/08/15 02:28:23;;;;;;;27.63;5.70;;;28.90;52.50;;;;;;5083262;28;20277;-72
2023/08/15 02:30:53;;;;;;;69.27;9.27;;;28.80;52.40;;;;;;5067835;28;20274;-72
2023/08/15 02:33:20;;;;;;;29.53;5.83;;;28.90;52.50;;;;;;5068542;28;20191;-72
2023/08/15 02:35:47;;;;;;;25.30;5.23;;;28.80;52.40;;;;;;5069852;28;20239;-72
2023/08/15 02:38:14;;;;;;;60.20;8.57;;;28.80;52.40;;;;;;5079013;28;20225;-72
2023/08/15 02:40:42;;;;;;;28.53;5.73;;;28.80;52.40;;;;;;5074402;28;20203;-72
2023/08/15 02:43:09;;;;;;;24.13;5.37;;;28.80;52.40;;;;;;5087230;28;20591;-72
2023/08/15 02:45:36;;;;;;;36.50;6.77;;;28.80;52.40;;;;;;5082699;28;20227;-72
2023/08/15 02:48:05;;;;;;;32.17;5.77;;;28.80;52.50;;;;;;5073694;28;20219;-71
2023/08/15 02:50:32;;;;;;;51.27;7.83;;;28.90;52.50;;;;;;5084709;28;20238;-71
2023/08/15 02:52:59;;;;;;;30.20;6.03;;;28.80;52.50;;;;;;5066740;28;20200;-71
2023/08/15 02:55:26;;;;;;;32.80;6.07;;;28.80;52.50;;;;;;5071363;28;20273;-71
2023/08/15 02:57:53;;;;;;;47.33;7.33;;;28.80;52.50;;;;;;5067175;28;20281;-71
2023/08/15 03:00:21;;;;;;;25.13;5.37;;;28.80;52.50;;;;;;5080458;28;20535;-71
2023/08/15 03:02:48;;;;;;;25.60;5.50;;;28.80;52.50;;;;;;5068318;28;20200;-71
2023/08/15 03:05:16;;;;;;;43.07;6.90;;;28.80;52.50;;;;;;5065210;28;21018;-71
2023/08/15 03:07:43;;;;;;;43.00;6.60;;;28.80;53.10;;;;;;5067087;28;21044;-71
2023/08/15 03:10:10;;;;;;;32.10;5.80;;;28.80;52.50;;;;;;5067679;28;20714;-71
2023/08/15 03:12:38;;;;;;;29.47;5.57;;;28.80;52.60;;;;;;5067547;28;20294;-71
2023/08/15 03:15:05;;;;;;;24.67;5.30;;;28.70;52.50;;;;;;5067976;28;20725;-71
2023/08/15 03:17:33;;;;;;;36.80;6.30;;;28.80;52.60;;;;;;5068475;28;20214;-72
2023/08/15 03:20:00;;;;;;;34.40;6.10;;;28.70;52.50;;;;;;5074524;28;20211;-71
2023/08/15 03:22:29;;;;;;;25.43;5.37;;;28.70;52.50;;;;;;5068674;28;20210;-71
2023/08/15 03:24:58;;;;;;;23.77;5.23;;;28.70;52.50;;;;;;5084907;28;20601;-71
2023/08/15 03:27:25;;;;;;;45.57;6.97;;;28.70;52.60;;;;;;5078110;28;20216;-73
2023/08/15 03:29:52;;;;;;;20.03;4.77;;;28.80;52.60;;;;;;5066698;28;20222;-71
2023/08/15 03:32:19;;;;;;;30.80;6.13;;;28.70;52.60;;;;;;5066743;28;20286;-72
2023/08/15 03:34:46;;;;;;;34.40;6.27;;;28.70;52.60;;;;;;5066758;28;20203;-71
2023/08/15 03:37:13;;;;;;;29.50;5.90;;;28.80;52.70;;;;;;5067024;28;20207;-71
2023/08/15 03:39:41;;;;;;;68.43;8.97;;;28.70;52.60;;;;;;5066118;28;20210;-71
2023/08/15 03:42:08;;;;;;;26.53;5.83;;;28.70;52.60;;;;;;5084722;28;20677;-72
2023/08/15 03:44:35;;;;;;;28.03;5.70;;;28.70;52.60;;;;;;5086053;28;20213;-71
2023/08/15 03:47:02;;;;;;;28.97;5.40;;;28.70;52.60;;;;;;5084809;28;20288;-71
2023/08/15 03:49:31;;;;;;;30.60;5.77;;;28.70;52.60;;;;;;5076083;28;20210;-71
2023/08/15 03:51:58;;;;;;;39.33;6.57;;;28.70;52.70;;;;;;5067748;28;20233;-71
2023/08/15 03:54:25;;;;;;;29.40;5.73;;;28.70;52.70;;;;;;5067614;28;20211;-71
2023/08/15 03:56:53;;;;;;;28.53;6.23;;;28.70;52.70;;;;;;5071021;28;20294;-71
2023/08/15 03:59:20;;;;;;;32.70;6.23;;;28.70;52.70;;;;;;5067346;28;20289;-71
2023/08/15 04:01:48;;;;;;;27.93;5.60;;;28.70;52.70;;;;;;5080461;28;20286;-72
2023/08/15 04:04:15;;;;;;;39.53;6.63;;;28.70;52.70;;;;;;5085082;28;20306;-71
2023/08/15 04:06:42;;;;;;;26.70;5.63;;;28.70;52.70;;;;;;5067469;28;20309;-71
2023/08/15 04:09:09;;;;;;;23.10;4.97;;;28.70;52.70;;;;;;5067636;28;20203;-71
2023/08/15 04:11:36;;;;;;;20.30;4.90;;;28.70;52.80;;;;;;5067217;28;20200;-71
2023/08/15 04:14:04;;;;;;;34.57;6.20;;;28.70;52.70;;;;;;5067173;28;20261;-71
2023/08/15 04:16:31;;;;;;;34.33;6.37;;;28.70;52.70;;;;;;5067240;28;20188;-71
2023/08/15 04:18:58;;;;;;;39.20;6.90;;;28.70;52.80;;;;;;5067981;28;20278;-71
2023/08/15 04:21:25;;;;;;;31.07;6.23;;;28.70;52.80;;;;;;5066351;28;20286;-71
2023/08/15 04:23:52;;;;;;;22.23;5.13;;;28.70;52.80;;;;;;5067575;28;20204;-71
2023/08/15 04:26:19;;;;;;;31.67;5.87;;;28.70;52.80;;;;;;5072184;28;20233;-71
2023/08/15 04:28:47;;;;;;;36.07;6.40;;;28.70;52.80;;;;;;5066144;28;20210;-71
2023/08/15 04:31:15;;;;;;;24.50;5.33;;;28.70;52.80;;;;;;5077193;28;20286;-71
2023/08/15 04:33:42;;;;;;;23.80;5.20;;;28.70;52.80;;;;;;5087325;28;20242;-72
2023/08/15 04:36:09;;;;;;;29.83;5.60;;;28.70;52.90;;;;;;5086844;28;20293;-72
2023/08/15 04:38:36;;;;;;;24.40;5.33;;;28.70;52.80;;;;;;5087723;28;20209;-71
2023/08/15 04:41:05;;;;;;;21.97;4.77;;;28.70;52.90;;;;;;5073178;28;20202;-71
2023/08/15 04:43:32;;;;;;;63.93;8.77;;;28.70;52.90;;;;;;5067819;28;20295;-71
2023/08/15 04:45:59;;;;;;;34.60;6.55;;;28.60;52.90;;;;;;5070210;28;20440;-71
2023/08/15 04:48:27;;;;;;;17.97;4.50;;;28.60;52.90;;;;;;5067529;28;20203;-71
2023/08/15 04:50:54;;;;;;;29.17;5.67;;;28.70;53.00;;;;;;5080386;28;20674;-71
2023/08/15 04:53:21;;;;;;;29.03;6.07;;;28.60;52.90;;;;;;5090424;28;20687;-71
2023/08/15 04:55:48;;;;;;;23.77;5.30;;;28.60;52.90;;;;;;5090956;28;20278;-70
2023/08/15 04:58:15;;;;;;;23.67;5.10;;;28.70;53.00;;;;;;5090958;28;20203;-70
2023/08/15 05:00:43;;;;;;;31.37;5.77;;;28.70;53.00;;;;;;5081376;28;20207;-70
2023/08/15 05:03:10;;;;;;;32.00;5.97;;;28.70;53.00;;;;;;5084181;28;20187;-70
2023/08/15 05:05:38;;;;;;;21.60;4.80;;;28.60;52.90;;;;;;5089333;28;20290;-71
2023/08/15 05:08:07;;;;;;;28.33;5.47;;;28.60;52.90;;;;;;5090502;28;20713;-70
2023/08/15 05:10:34;;;;;;;27.43;5.60;;;28.60;52.90;;;;;;5089336;28;20198;-70
2023/08/15 05:13:01;;;;;;;22.23;5.60;;;28.60;52.90;;;;;;5090870;28;20357;-70
2023/08/15 05:15:28;;;;;;;26.73;5.47;;;28.60;52.90;;;;;;5090640;28;20209;-70
2023/08/15 05:17:55;;;;;;;24.47;5.47;;;28.60;52.90;;;;;;5090840;28;20190;-71
2023/08/15 05:20:22;;;;;;;48.10;7.23;;;28.60;52.90;;;;;;5073310;28;20290;-70
2023/08/15 05:22:51;;;;;;;21.80;5.37;;;28.60;52.90;;;;;;5070279;28;20654;-71
2023/08/15 05:25:18;;;;;;;44.47;7.23;;;28.60;52.90;;;;;;5073410;28;20213;-70
2023/08/15 05:27:45;;;;;;;58.30;8.27;;;28.60;52.90;;;;;;5070202;28;20425;-71
2023/08/15 05:30:12;;;;;;;23.33;5.50;;;28.60;52.90;;;;;;5081345;28;20198;-70
2023/08/15 05:32:39;;;;;;;35.03;6.17;;;28.60;52.90;;;;;;5084104;28;20279;-71
2023/08/15 05:35:09;;;;;;;52.27;7.73;;;28.60;52.90;;;;;;5069269;28;20283;-70
2023/08/15 05:37:36;;;;;;;27.77;5.40;;;28.60;52.90;;;;;;5071823;28;20222;-71
2023/08/15 05:40:06;;;;;;;27.43;5.57;;;28.60;52.90;;;;;;5070685;28;20394;-72
2023/08/15 05:42:33;;;;;;;26.73;5.30;;;28.60;52.90;;;;;;5068822;28;20302;-72
2023/08/15 05:45:00;;;;;;;23.57;5.37;;;28.50;52.90;;;;;;5069813;28;20246;-70
2023/08/15 05:47:27;;;;;;;26.10;5.77;;;28.60;52.90;;;;;;5070371;28;20757;-70
2023/08/15 05:49:53;;;;;;;27.37;5.27;;;28.60;52.90;;;;;;5083169;28;20674;-70
2023/08/15 05:52:20;;;;;;;25.87;5.37;;;28.50;52.90;;;;;;5068985;28;20239;-71
2023/08/15 05:54:47;;;;;;;23.33;5.67;;;28.50;52.90;;;;;;5072700;28;20285;-70
2023/08/15 05:57:16;;;;;;;29.77;5.90;;;28.50;52.90;;;;;;5070663;28;20290;-70
2023/08/15 05:59:42;;;;;;;36.07;6.20;;;28.60;52.90;;;;;;5076711;28;20718;-71
2023/08/15 06:02:09;;;;;;;29.10;5.63;;;28.50;52.90;;;;;;5071389;28;20291;-71
2023/08/15 06:04:37;;;;;;;40.17;6.43;;;28.50;52.90;;;;;;5067386;28;20199;-71
2023/08/15 06:07:04;;;;;;;28.80;5.73;;;28.50;52.90;;;;;;5068394;28;20226;-70
2023/08/15 06:09:31;;;;;;;20.70;5.03;;;28.50;52.90;;;;;;5080191;28;20301;-70
2023/08/15 06:11:58;;;;;;;23.50;4.90;;;28.50;52.90;;;;;;5088499;28;20730;-70
2023/08/15 06:14:26;;;;;;;26.07;5.53;;;28.50;52.90;;;;;;5089331;28;20294;-70
2023/08/15 06:16:53;;;;;;;51.07;7.70;;;28.50;52.90;;;;;;5079497;28;20319;-70
2023/08/15 06:19:21;;;;;;;27.33;5.60;;;28.50;52.90;;;;;;5080047;28;20222;-70
2023/08/15 06:21:51;;;;;;;26.03;5.87;;;28.40;52.80;;;;;;5073544;28;20234;-70
2023/08/15 06:24:18;;;;;;;28.73;5.80;;;28.50;52.90;;;;;;5068763;28;20192;-70
2023/08/15 06:26:45;;;;;;;22.33;5.10;;;28.50;52.90;;;;;;5068393;28;20347;-71
2023/08/15 06:29:11;;;;;;;25.43;5.57;;;28.40;53.40;;;;;;5073873;28;20731;-70
2023/08/15 06:31:40;;;;;;;33.37;5.90;;;28.40;52.80;;;;;;5067418;28;20234;-70
2023/08/15 06:34:07;;;;;;;24.67;5.27;;;28.50;53.00;;;;;;5068514;28;20731;-71
2023/08/15 06:36:34;;;;;;;23.77;5.07;;;28.40;52.90;;;;;;5073497;28;20203;-70
2023/08/15 06:39:01;;;;;;;53.80;7.93;;;28.40;52.90;;;;;;5067712;28;20200;-70
2023/08/15 06:41:28;;;;;;;29.13;5.47;;;28.50;53.00;;;;;;5089080;28;20294;-70
2023/08/15 06:43:55;;;;;;;22.63;5.00;;;28.40;52.90;;;;;;5081256;28;20217;-72
2023/08/15 06:46:22;;;;;;;26.47;5.57;;;28.50;53.00;;;;;;5074966;28;20255;-71
2023/08/15 06:48:50;;;;;;;32.50;5.83;;;28.40;53.00;;;;;;5088914;28;20191;-72
2023/08/15 06:51:17;;;;;;;23.43;5.13;;;28.40;53.00;;;;;;5080862;28;20198;-71
2023/08/15 06:53:45;;;;;;;20.33;4.87;;;28.40;53.10;;;;;;5073096;28;20199;-72
2023/08/15 06:56:12;;;;;;;53.77;7.63;;;28.40;53.10;;;;;;5073794;28;20192;-69
2023/08/15 06:58:39;;;;;;;27.17;5.37;;;28.40;53.10;;;;;;5068626;28;20312;-72
2023/08/15 07:01:06;;;;;;;29.10;5.83;;;28.40;53.10;;;;;;5080545;28;20645;-70
2023/08/15 07:03:34;;;;;;;26.60;5.43;;;28.40;53.20;;;;;;5076814;28;20198;-72
2023/08/15 07:06:04;;;;;;;43.07;7.03;;;28.40;53.20;;;;;;5069490;28;20299;-69
2023/08/15 07:08:31;;;;;;;26.80;5.20;;;28.40;53.30;;;;;;5075203;28;20211;-72
2023/08/15 07:10:59;;;;;;;24.23;5.57;;;28.40;53.30;;;;;;5088689;28;20201;-70
2023/08/15 07:13:26;;;;;;;23.40;5.23;;;28.40;53.30;;;;;;5087849;28;20290;-73
2023/08/15 07:15:57;;;;;;;80.37;9.87;;;28.50;53.40;;;;;;5071642;28;20905;-72
2023/08/15 07:18:24;;;;;;;53.77;11.60;;;28.40;53.30;;;;;;5078022;28;20203;-70
2023/08/15 07:20:51;;;;;;;49.13;10.50;;;28.40;53.40;;;;;;5067086;28;20239;-70
2023/08/15 07:23:21;;;;;;;34.13;9.57;;;28.40;53.40;;;;;;5068044;28;20286;-70
2023/08/15 07:25:48;;;;;;;34.63;8.80;;;28.40;53.50;;;;;;5067275;28;20226;-71
2023/08/15 07:28:15;;;;;;;42.33;8.67;;;28.40;53.40;;;;;;5067051;28;20233;-70
2023/08/15 07:30:45;;;;;;;47.07;8.17;;;28.50;53.50;;;;;;5068682;28;20806;-70
2023/08/15 07:33:12;;;;;;;33.63;7.13;;;28.50;53.50;;;;;;5076629;28;20986;-70
2023/08/15 07:35:39;;;;;;;27.67;6.30;;;28.50;53.50;;;;;;5080060;28;20571;-72
2023/08/15 07:38:06;;;;;;;33.63;7.00;;;28.50;53.50;;;;;;5067897;28;20211;-71
2023/08/15 07:40:35;;;;;;;63.73;9.57;;;28.50;53.50;;;;;;5082534;28;20208;-71
2023/08/15 07:43:02;;;;;;;25.23;5.73;;;28.50;53.40;;;;;;5080341;28;20648;-72
2023/08/15 07:45:29;;;;;;;26.40;5.90;;;28.50;53.40;;;;;;5076738;28;20221;-71
2023/08/15 07:47:58;;;;;;;29.23;6.53;;;28.60;53.50;;;;;;5086987;28;20310;-70
2023/08/15 07:50:27;;;;;;;31.00;6.83;;;28.50;53.40;;;;;;5086648;28;20219;-70
2023/08/15 07:52:58;;;;;;;37.17;7.53;;;28.50;53.40;;;;;;5069628;28;20239;-70
2023/08/15 07:55:25;;;;;;;24.63;6.00;;;28.60;53.40;;;;;;5066804;28;20298;-71
2023/08/15 07:57:53;;;;;;;20.90;5.40;;;28.60;53.40;;;;;;5069524;28;20558;-70
2023/08/15 08:00:20;;;;;;;38.33;7.17;;;28.60;53.40;;;;;;5066547;28;20207;-70
2023/08/15 08:02:47;;;;;;;28.17;6.40;;;28.60;53.40;;;;;;5066983;28;20295;-70
2023/08/15 08:05:16;;;;;;;49.63;8.40;;;28.60;53.40;;;;;;5082441;28;20195;-70
2023/08/15 08:07:44;;;;;;;30.27;6.30;;;28.60;53.40;;;;;;5065487;28;20234;-69
2023/08/15 08:10:12;;;;;;;32.63;6.83;;;28.60;53.40;;;;;;5066863;28;20286;-70
2023/08/15 08:12:39;;;;;;;24.47;6.33;;;28.60;53.50;;;;;;5068248;28;20276;-70
2023/08/15 08:15:09;;;;;;;25.47;5.83;;;28.60;53.40;;;;;;5079493;28;20265;-70
2023/08/15 08:17:36;;;;;;;27.17;5.90;;;28.60;53.40;;;;;;5073350;28;20211;-70
2023/08/15 08:20:06;;;;;;;33.77;6.53;;;28.60;53.40;;;;;;5081888;28;20205;-70
2023/08/15 08:22:33;;;;;;;24.83;5.77;;;28.60;53.40;;;;;;5071683;28;20214;-69
2023/08/15 08:25:11;;;;;;;31.80;6.90;;;28.60;53.40;;;;;;5068300;28;20758;-70
2023/08/15 08:27:38;;;;;;;25.67;6.23;;;28.60;53.60;;;;;;5070838;28;20309;-71
2023/08/15 08:30:08;;;;;;;25.87;5.73;;;28.60;53.50;;;;;;5071761;28;20296;-72
2023/08/15 08:32:35;;;;;;;23.63;5.77;;;28.60;53.50;;;;;;5081530;28;20210;-71
2023/08/15 08:35:02;;;;;;;22.40;5.97;;;28.60;53.60;;;;;;5075349;28;20235;-71
2023/08/15 08:37:29;;;;;;;31.33;6.33;;;28.60;53.60;;;;;;5071380;28;20222;-72
2023/08/15 08:39:56;;;;;;;23.73;5.63;;;28.60;53.60;;;;;;5070492;28;20295;-73
2023/08/15 08:42:23;;;;;;;28.80;5.83;;;28.60;53.60;;;;;;5073722;28;20294;-71
2023/08/15 08:44:51;;;;;;;30.37;6.10;;;28.60;53.60;;;;;;5089127;28;20203;-71
2023/08/15 08:47:20;;;;;;;28.23;6.50;;;28.60;53.60;;;;;;5070883;28;20210;-70
2023/08/15 08:49:49;;;;;;;21.93;5.30;;;28.60;53.60;;;;;;5070739;28;20573;-71
2023/08/15 08:52:17;;;;;;;40.93;7.37;;;28.70;53.70;;;;;;5070256;28;20196;-71
2023/08/15 08:54:44;;;;;;;28.50;5.73;;;28.70;53.70;;;;;;5074379;28;20207;-71
2023/08/15 08:57:12;;;;;;;23.50;5.80;;;28.70;53.70;;;;;;5070512;28;20216;-71
2023/08/15 08:59:43;;;;;;;28.23;6.07;;;28.70;53.60;;;;;;5077246;28;20674;-70
2023/08/15 09:02:14;;;;;;;28.77;5.93;;;28.70;53.70;;;;;;5090338;28;20731;-70
2023/08/15 09:04:42;;;;;;;29.93;6.40;;;28.70;53.70;;;;;;5091232;28;20267;-70
2023/08/15 09:07:09;;;;;;;24.40;6.00;;;28.70;53.70;;;;;;5090629;28;20207;-70
2023/08/15 09:09:36;;;;;;;26.07;5.87;;;28.70;53.60;;;;;;5090545;28;20599;-70
2023/08/15 09:12:06;;;;;;;27.57;6.10;;;28.70;53.60;;;;;;5090108;28;20892;-70
2023/08/15 09:14:33;;;;;;;26.23;5.93;;;28.70;53.60;;;;;;5090738;28;20198;-70
2023/08/15 09:17:00;;;;;;;31.83;5.97;;;28.70;53.60;;;;;;5090413;28;20289;-71
2023/08/15 09:19:27;;;;;;;23.23;5.50;;;28.70;53.60;;;;;;5077346;28;20207;-70
2023/08/15 09:21:55;;;;;;;26.60;5.90;;;28.70;53.60;;;;;;5086971;28;20221;-70
2023/08/15 09:24:27;;;;;;;32.10;6.27;;;28.70;53.60;;;;;;5078618;28;20213;-71
2023/08/15 09:26:54;;;;;;;25.60;5.90;;;28.70;53.70;;;;;;5069112;28;20674;-70
2023/08/15 09:29:23;;;;;;;25.50;5.60;;;28.70;53.70;;;;;;5074020;28;20293;-72
2023/08/15 09:31:50;;;;;;;35.67;6.73;;;28.70;53.70;;;;;;5080925;28;20257;-70
2023/08/15 09:34:16;;;;;;;22.53;5.60;;;28.70;53.70;;;;;;5070092;28;20917;-71
2023/08/15 09:36:43;;;;;;;22.03;5.40;;;28.80;53.90;;;;;;5068927;28;20298;-72
2023/08/15 09:39:12;;;;;;;42.50;7.07;;;28.80;53.90;;;;;;5069184;28;20285;-71
2023/08/15 09:41:42;;;;;;;29.33;5.90;;;28.80;53.90;;;;;;5082638;28;20293;-70
2023/08/15 09:44:09;;;;;;;23.57;5.67;;;28.80;54.00;;;;;;5071605;28;20200;-72
2023/08/15 09:46:37;;;;;;;23.33;5.60;;;28.80;54.60;;;;;;5069109;28;20310;-71
2023/08/15 09:49:05;;;;;;;47.40;7.67;;;28.80;54.00;;;;;;5068217;28;20215;-70
2023/08/15 09:51:34;;;;;;;20.67;5.13;;;28.90;54.00;;;;;;5068973;28;20656;-72
2023/08/15 09:54:02;;;;;;;21.20;5.40;;;28.90;54.00;;;;;;5069459;28;20286;-73
2023/08/15 09:56:30;;;;;;;28.30;5.93;;;29.00;54.10;;;;;;5069195;28;20203;-71
2023/08/15 09:58:57;;;;;;;24.07;6.17;;;29.00;54.10;;;;;;5069469;28;20293;-70
2023/08/15 10:01:29;;;;;;;24.13;5.60;;;29.00;54.00;;;;;;5069056;28;20286;-72
2023/08/15 10:04:00;;;;;;;23.13;5.80;;;29.00;54.00;;;;;;5069239;28;20290;-71
2023/08/15 10:06:27;;;;;;;30.80;6.37;;;29.10;54.10;;;;;;5084808;28;20206;-71
2023/08/15 10:08:55;;;;;;;41.17;7.10;;;29.10;54.10;;;;;;5068055;28;20312;-72
2023/08/15 10:11:22;;;;;;;24.33;5.67;;;29.10;54.00;;;;;;5082886;28;20392;-71
2023/08/15 10:13:51;;;;;;;16.53;4.50;;;29.10;54.00;;;;;;5079412;28;20302;-71
2023/08/15 10:16:18;;;;;;;39.77;6.83;;;29.20;54.00;;;;;;5068543;28;20208;-71
2023/08/15 10:19:03;;;;;;;25.47;6.23;;;29.20;54.00;;;;;;5068692;28;20257;-70
2023/08/15 10:21:47;;;;;;;18.77;5.17;;;29.20;54.00;;;;;;5080534;28;20276;-71
2023/08/15 10:24:14;;;;;;;27.03;5.73;;;29.20;54.00;;;;;;5074656;28;20310;-71
2023/08/15 10:26:41;;;;;;;29.23;6.10;;;29.30;54.00;;;;;;5068827;28;20235;-71
2023/08/15 10:29:10;;;;;;;27.37;5.67;;;29.30;54.00;;;;;;5068727;28;20709;-71
2023/08/15 10:31:38;;;;;;;24.20;5.77;;;29.30;54.00;;;;;;5070120;28;20217;-72
2023/08/15 10:34:08;;;;;;;25.90;5.80;;;29.30;54.10;;;;;;5068954;28;20214;-71
2023/08/15 10:36:35;;;;;;;22.30;5.80;;;29.40;54.20;;;;;;5068626;28;20203;-72
2023/08/15 10:39:06;;;;;;;48.07;7.77;;;29.50;54.30;;;;;;5067998;28;20298;-71
2023/08/15 10:41:35;;;;;;;21.80;5.23;;;29.50;54.30;;;;;;5080748;28;20211;-72
2023/08/15 10:44:05;;;;;;;31.00;6.43;;;29.60;54.40;;;;;;5083779;28;20206;-71
2023/08/15 10:46:35;;;;;;;41.37;7.33;;;29.70;54.50;;;;;;5072498;28;20598;-71
2023/08/15 10:49:07;;;;;;;29.83;6.27;;;29.80;54.50;;;;;;5067505;28;20219;-71
2023/08/15 10:51:35;;;;;;;26.67;6.17;;;30.00;54.60;;;;;;5068446;28;20234;-71
2023/08/15 10:54:04;;;;;;;34.37;6.43;;;30.20;54.60;;;;;;5067079;28;20213;-72
2023/08/15 10:56:33;;;;;;;30.90;6.63;;;30.30;54.70;;;;;;5072240;28;20195;-72
2023/08/15 10:59:06;;;;;;;21.67;5.72;;;30.50;54.70;;;;;;5070926;28;20200;-72
2023/08/15 11:01:35;;;;;;;24.53;5.67;;;30.60;54.60;;;;;;5088535;28;20183;-71
2023/08/15 11:04:03;;;;;;;39.83;7.53;;;30.80;54.30;;;;;;5085879;28;20198;-72
2023/08/15 11:06:30;;;;;;;43.53;7.40;;;30.90;54.40;;;;;;5067776;28;20209;-72
2023/08/15 11:08:59;;;;;;;36.53;6.87;;;31.10;54.40;;;;;;5071558;28;20668;-72
2023/08/15 11:11:26;;;;;;;22.13;5.50;;;31.20;54.20;;;;;;5067198;28;20225;-71
2023/08/15 11:13:55;;;;;;;41.25;6.95;;;31.40;54.10;;;;;;5067807;28;20286;-72
2023/08/15 11:16:23;;;;;;;53.53;8.73;;;31.50;53.80;;;;;;5067458;28;20531;-71
2023/08/15 11:18:52;;;;;;;24.92;5.75;;;31.60;53.70;;;;;;5070150;28;20194;-71
2023/08/15 11:21:19;;;;;;;34.33;6.32;;;31.80;53.70;;;;;;5070064;28;20637;-71
2023/08/15 11:23:48;;;;;;;23.80;5.45;;;31.90;53.70;;;;;;5070485;28;20294;-72
2023/08/15 11:26:15;;;;;;;20.98;5.72;;;32.00;53.40;;;;;;5067303;28;20211;-71
2023/08/15 11:28:43;;;;;;;22.70;5.30;;;32.20;53.30;;;;;;5067164;28;20310;-73
2023/08/15 11:31:11;;;;;;;23.00;5.38;;;32.30;53.30;;;;;;5067766;28;20607;-72
2023/08/15 11:33:38;;;;;;;24.35;6.15;;;32.40;53.70;;;;;;5067812;28;20802;-72
2023/08/15 11:36:09;;;;;;;16.30;4.60;;;32.50;53.10;;;;;;5066791;28;21082;-72
2023/08/15 11:38:38;;;;;;;14.02;4.55;;;32.70;53.00;;;;;;5067232;28;20572;-71
2023/08/15 11:41:05;;;;;;;40.28;7.35;;;32.80;52.90;;;;;;5067984;28;20286;-72
2023/08/15 11:43:34;;;;;;;26.48;6.20;;;32.90;52.90;;;;;;5067611;28;20733;-72
2023/08/15 11:46:02;;;;;;;20.98;5.50;;;33.10;52.80;;;;;;5070711;28;20732;-72
2023/08/15 11:48:30;;;;;;;31.42;6.38;;;33.20;52.60;;;;;;5073740;28;20582;-71
2023/08/15 11:50:58;;;;;;;29.10;6.22;;;33.30;52.30;;;;;;5075551;28;20829;-72
2023/08/15 11:53:26;;;;;;;22.05;5.90;;;33.40;52.10;;;;;;5073355;28;20207;-72
2023/08/15 11:55:54;;;;;;;22.00;5.65;;;33.60;52.00;;;;;;5077667;28;20664;-72
2023/08/15 11:58:25;;;;;;;17.58;4.90;;;33.60;51.90;;;;;;5078398;28;20606;-72
2023/08/15 12:00:54;;;;;;;19.00;5.47;;;33.70;51.70;;;;;;5071669;28;20195;-72
2023/08/15 12:03:21;;;;;;;22.75;5.78;;;33.80;51.80;;;;;;5071804;28;20707;-72
2023/08/15 12:05:49;;;;;;;28.08;6.43;;;33.90;52.20;;;;;;5077902;28;20202;-72
2023/08/15 12:08:17;;;;;;;23.13;5.60;;;34.10;52.30;;;;;;5089985;28;20222;-72
2023/08/15 12:10:46;;;;;;;31.55;6.47;;;34.10;51.50;;;;;;5089969;28;20775;-71
2023/08/15 12:13:13;;;;;;;22.15;5.43;;;34.20;51.30;;;;;;5090292;28;20229;-72
2023/08/15 12:15:40;;;;;;;24.15;6.05;;;34.30;51.30;;;;;;5075363;28;20205;-71
2023/08/15 12:18:07;;;;;;;23.25;6.00;;;34.40;51.20;;;;;;5076310;28;20202;-72
2023/08/15 12:20:34;;;;;;;46.47;7.57;;;34.50;51.20;;;;;;5081168;28;20259;-72
2023/08/15 12:23:02;;;;;;;22.35;5.35;;;34.60;51.10;;;;;;5071712;28;20365;-72
2023/08/15 12:25:29;;;;;;;19.83;5.10;;;34.70;51.00;;;;;;5071312;28;20204;-72
2023/08/15 12:27:57;;;;;;;40.88;6.95;;;34.70;50.60;;;;;;5071355;28;20397;-71
2023/08/15 12:30:24;;;;;;;18.45;5.40;;;34.90;50.60;;;;;;5071746;28;20619;-71
2023/08/15 12:32:51;;;;;;;22.90;5.80;;;34.90;50.40;;;;;;5070359;28;20236;-72
2023/08/15 12:35:18;;;;;;;25.05;6.20;;;35.00;50.30;;;;;;5075312;28;20205;-72
2023/08/15 12:37:45;;;;;;;23.52;5.90;;;35.00;50.10;;;;;;5091289;28;20282;-71